sensor_id;sensor_type;location;lat;lon;timestamp;P1;durP1;ratioP1;P2;durP2;ratioP2
70450;SDS011;58869;51.982;4.450;2023-05-21T00:00:59;8.23;;;8.23;;
70450;SDS011;58869;51.982;4.450;2023-05-21T00:03:25;8.44;;;8.44;;
70450;SDS011;58869;51.982;4.450;2023-05-21T00:05:54;8.73;;;8.73;;
70450;SDS011;58869;51.982;4.450;2023-05-21T00:08:19;8.11;;;8.11;;
70450;SDS011;58869;51.982;4.450;2023-05-21T00:10:45;8.08;;;8.08;;
70450;SDS011;58869;51.982;4.450;2023-05-21T00:13:12;7.94;;;7.94;;
70450;SDS011;58869;51.982;4.450;2023-05-21T00:15:42;7.71;;;7.71;;
70450;SDS011;58869;51.982;4.450;2023-05-21T00:18:08;8.18;;;8.18;;
70450;SDS011;58869;51.982;4.450;2023-05-21T00:20:33;8.08;;;8.08;;
70450;SDS011;58869;51.982;4.450;2023-05-21T00:23:01;7.86;;;7.86;;
70450;SDS011;58869;51.982;4.450;2023-05-21T00:25:27;7.80;;;7.80;;
70450;SDS011;58869;51.982;4.450;2023-05-21T00:27:54;7.96;;;7.96;;
70450;SDS011;58869;51.982;4.450;2023-05-21T00:30:21;8.32;;;8.32;;
70450;SDS011;58869;51.982;4.450;2023-05-21T00:32:46;8.05;;;8.05;;
70450;SDS011;58869;51.982;4.450;2023-05-21T00:35:12;7.82;;;7.82;;
70450;SDS011;58869;51.982;4.450;2023-05-21T00:37:37;8.14;;;8.14;;
70450;SDS011;58869;51.982;4.450;2023-05-21T00:40:03;8.09;;;8.09;;
70450;SDS011;58869;51.982;4.450;2023-05-21T00:42:32;8.30;;;8.30;;
70450;SDS011;58869;51.982;4.450;2023-05-21T00:45:04;7.94;;;7.94;;
70450;SDS011;58869;51.982;4.450;2023-05-21T00:47:31;7.76;;;7.76;;
70450;SDS011;58869;51.982;4.450;2023-05-21T00:49:57;8.25;;;8.25;;
70450;SDS011;58869;51.982;4.450;2023-05-21T00:52:26;8.50;;;8.50;;
70450;SDS011;58869;51.982;4.450;2023-05-21T00:54:51;7.94;;;7.94;;
70450;SDS011;58869;51.982;4.450;2023-05-21T00:57:18;8.27;;;8.27;;
70450;SDS011;58869;51.982;4.450;2023-05-21T00:59:51;8.08;;;8.08;;
70450;SDS011;58869;51.982;4.450;2023-05-21T01:02:18;7.64;;;7.64;;
70450;SDS011;58869;51.982;4.450;2023-05-21T01:04:44;8.12;;;8.12;;
70450;SDS011;58869;51.982;4.450;2023-05-21T01:07:10;8.10;;;8.10;;
70450;SDS011;58869;51.982;4.450;2023-05-21T01:09:36;7.36;;;7.36;;
70450;SDS011;58869;51.982;4.450;2023-05-21T01:12:02;6.96;;;6.96;;
70450;SDS011;58869;51.982;4.450;2023-05-21T01:14:29;7.66;;;7.66;;
70450;SDS011;58869;51.982;4.450;2023-05-21T01:16:59;7.50;;;7.50;;
70450;SDS011;58869;51.982;4.450;2023-05-21T01:19:26;7.19;;;7.19;;
70450;SDS011;58869;51.982;4.450;2023-05-21T01:21:55;7.79;;;7.79;;
70450;SDS011;58869;51.982;4.450;2023-05-21T01:24:23;6.77;;;6.77;;
70450;SDS011;58869;51.982;4.450;2023-05-21T01:26:48;6.96;;;6.96;;
70450;SDS011;58869;51.982;4.450;2023-05-21T01:29:14;7.22;;;7.22;;
70450;SDS011;58869;51.982;4.450;2023-05-21T01:31:58;7.59;;;7.59;;
70450;SDS011;58869;51.982;4.450;2023-05-21T01:37:21;7.63;;;7.63;;
70450;SDS011;58869;51.982;4.450;2023-05-21T01:39:56;7.45;;;7.45;;
70450;SDS011;58869;51.982;4.450;2023-05-21T01:42:28;7.48;;;7.48;;
70450;SDS011;58869;51.982;4.450;2023-05-21T01:44:56;7.96;;;7.96;;
70450;SDS011;58869;51.982;4.450;2023-05-21T01:47:24;7.11;;;7.11;;
70450;SDS011;58869;51.982;4.450;2023-05-21T01:49:51;7.81;;;7.81;;
70450;SDS011;58869;51.982;4.450;2023-05-21T01:52:17;7.97;;;7.97;;
70450;SDS011;58869;51.982;4.450;2023-05-21T01:54:43;7.66;;;7.66;;
70450;SDS011;58869;51.982;4.450;2023-05-21T01:57:15;7.50;;;7.50;;
70450;SDS011;58869;51.982;4.450;2023-05-21T01:59:41;7.75;;;7.75;;
70450;SDS011;58869;51.982;4.450;2023-05-21T02:02:09;7.58;;;7.58;;
70450;SDS011;58869;51.982;4.450;2023-05-21T02:04:35;7.74;;;7.74;;
70450;SDS011;58869;51.982;4.450;2023-05-21T02:07:01;7.62;;;7.62;;
70450;SDS011;58869;51.982;4.450;2023-05-21T02:09:26;7.73;;;7.73;;
70450;SDS011;58869;51.982;4.450;2023-05-21T02:12:17;7.32;;;7.32;;
70450;SDS011;58869;51.982;4.450;2023-05-21T02:14:43;7.69;;;7.69;;
70450;SDS011;58869;51.982;4.450;2023-05-21T02:17:14;8.38;;;8.38;;
70450;SDS011;58869;51.982;4.450;2023-05-21T02:19:42;8.14;;;8.14;;
70450;SDS011;58869;51.982;4.450;2023-05-21T02:22:11;8.20;;;8.20;;
70450;SDS011;58869;51.982;4.450;2023-05-21T02:24:36;8.17;;;8.17;;
70450;SDS011;58869;51.982;4.450;2023-05-21T02:27:02;8.56;;;8.56;;
70450;SDS011;58869;51.982;4.450;2023-05-21T02:29:27;7.71;;;7.71;;
70450;SDS011;58869;51.982;4.450;2023-05-21T02:31:53;8.45;;;8.45;;
70450;SDS011;58869;51.982;4.450;2023-05-21T02:34:18;8.20;;;8.20;;
70450;SDS011;58869;51.982;4.450;2023-05-21T02:36:46;7.90;;;7.90;;
70450;SDS011;58869;51.982;4.450;2023-05-21T02:39:13;7.93;;;7.93;;
70450;SDS011;58869;51.982;4.450;2023-05-21T02:41:39;7.94;;;7.94;;
70450;SDS011;58869;51.982;4.450;2023-05-21T02:44:06;8.17;;;8.17;;
70450;SDS011;58869;51.982;4.450;2023-05-21T02:46:32;8.08;;;8.08;;
70450;SDS011;58869;51.982;4.450;2023-05-21T02:48:57;7.74;;;7.74;;
70450;SDS011;58869;51.982;4.450;2023-05-21T02:51:22;8.24;;;8.24;;
70450;SDS011;58869;51.982;4.450;2023-05-21T02:53:48;8.34;;;8.34;;
70450;SDS011;58869;51.982;4.450;2023-05-21T02:56:13;7.59;;;7.59;;
70450;SDS011;58869;51.982;4.450;2023-05-21T02:58:39;8.18;;;8.18;;
70450;SDS011;58869;51.982;4.450;2023-05-21T03:01:04;7.99;;;7.99;;
70450;SDS011;58869;51.982;4.450;2023-05-21T03:03:30;8.53;;;8.53;;
70450;SDS011;58869;51.982;4.450;2023-05-21T03:05:56;8.48;;;8.48;;
70450;SDS011;58869;51.982;4.450;2023-05-21T03:08:22;7.99;;;7.99;;
70450;SDS011;58869;51.982;4.450;2023-05-21T03:10:50;8.16;;;8.16;;
70450;SDS011;58869;51.982;4.450;2023-05-21T03:13:16;8.85;;;8.85;;
70450;SDS011;58869;51.982;4.450;2023-05-21T03:15:41;8.51;;;8.51;;
70450;SDS011;58869;51.982;4.450;2023-05-21T03:18:08;8.66;;;8.66;;
70450;SDS011;58869;51.982;4.450;2023-05-21T03:20:37;8.44;;;8.44;;
70450;SDS011;58869;51.982;4.450;2023-05-21T03:23:07;8.99;;;8.99;;
70450;SDS011;58869;51.982;4.450;2023-05-21T03:25:33;8.14;;;8.14;;
70450;SDS011;58869;51.982;4.450;2023-05-21T03:28:00;8.10;;;8.10;;
70450;SDS011;58869;51.982;4.450;2023-05-21T03:30:26;8.36;;;8.36;;
70450;SDS011;58869;51.982;4.450;2023-05-21T03:32:51;8.38;;;8.38;;
70450;SDS011;58869;51.982;4.450;2023-05-21T03:35:18;8.61;;;8.61;;
70450;SDS011;58869;51.982;4.450;2023-05-21T03:37:44;8.65;;;8.65;;
70450;SDS011;58869;51.982;4.450;2023-05-21T03:40:13;8.34;;;8.34;;
70450;SDS011;58869;51.982;4.450;2023-05-21T03:42:38;8.58;;;8.58;;
70450;SDS011;58869;51.982;4.450;2023-05-21T03:45:04;8.90;;;8.90;;
70450;SDS011;58869;51.982;4.450;2023-05-21T03:47:30;8.90;;;8.90;;
70450;SDS011;58869;51.982;4.450;2023-05-21T03:49:56;8.77;;;8.77;;
70450;SDS011;58869;51.982;4.450;2023-05-21T03:52:23;8.91;;;8.91;;
70450;SDS011;58869;51.982;4.450;2023-05-21T03:54:48;9.00;;;9.00;;
70450;SDS011;58869;51.982;4.450;2023-05-21T03:57:14;9.32;;;9.32;;
70450;SDS011;58869;51.982;4.450;2023-05-21T03:59:39;8.86;;;8.86;;
70450;SDS011;58869;51.982;4.450;2023-05-21T04:02:04;8.97;;;8.97;;
70450;SDS011;58869;51.982;4.450;2023-05-21T04:04:30;9.06;;;9.06;;
70450;SDS011;58869;51.982;4.450;2023-05-21T04:06:57;8.63;;;8.63;;
70450;SDS011;58869;51.982;4.450;2023-05-21T04:09:23;8.75;;;8.75;;
70450;SDS011;58869;51.982;4.450;2023-05-21T04:11:49;9.06;;;9.06;;
70450;SDS011;58869;51.982;4.450;2023-05-21T04:14:14;9.28;;;9.28;;
70450;SDS011;58869;51.982;4.450;2023-05-21T04:16:41;9.19;;;9.19;;
70450;SDS011;58869;51.982;4.450;2023-05-21T04:19:08;9.10;;;9.10;;
70450;SDS011;58869;51.982;4.450;2023-05-21T04:21:33;9.34;;;9.34;;
70450;SDS011;58869;51.982;4.450;2023-05-21T04:24:00;9.45;;;9.45;;
70450;SDS011;58869;51.982;4.450;2023-05-21T04:26:26;9.25;;;9.25;;
70450;SDS011;58869;51.982;4.450;2023-05-21T04:28:52;9.70;;;9.70;;
70450;SDS011;58869;51.982;4.450;2023-05-21T04:31:23;9.31;;;9.31;;
70450;SDS011;58869;51.982;4.450;2023-05-21T04:33:49;9.49;;;9.49;;
70450;SDS011;58869;51.982;4.450;2023-05-21T04:36:16;9.45;;;9.45;;
70450;SDS011;58869;51.982;4.450;2023-05-21T04:38:41;9.85;;;9.85;;
70450;SDS011;58869;51.982;4.450;2023-05-21T04:41:07;9.46;;;9.46;;
70450;SDS011;58869;51.982;4.450;2023-05-21T04:43:36;9.36;;;9.36;;
70450;SDS011;58869;51.982;4.450;2023-05-21T04:46:02;9.18;;;9.18;;
70450;SDS011;58869;51.982;4.450;2023-05-21T04:48:27;8.89;;;8.89;;
70450;SDS011;58869;51.982;4.450;2023-05-21T04:50:53;9.31;;;9.31;;
70450;SDS011;58869;51.982;4.450;2023-05-21T04:53:20;9.28;;;9.28;;
70450;SDS011;58869;51.982;4.450;2023-05-21T04:55:46;9.57;;;9.57;;
70450;SDS011;58869;51.982;4.450;2023-05-21T04:58:12;9.47;;;9.47;;
70450;SDS011;58869;51.982;4.450;2023-05-21T05:00:38;9.23;;;9.23;;
70450;SDS011;58869;51.982;4.450;2023-05-21T05:03:06;9.27;;;9.27;;
70450;SDS011;58869;51.982;4.450;2023-05-21T05:05:32;9.51;;;9.51;;
70450;SDS011;58869;51.982;4.450;2023-05-21T05:07:57;9.38;;;9.38;;
70450;SDS011;58869;51.982;4.450;2023-05-21T05:10:23;9.69;;;9.69;;
70450;SDS011;58869;51.982;4.450;2023-05-21T05:12:48;9.60;;;9.60;;
70450;SDS011;58869;51.982;4.450;2023-05-21T05:15:14;9.30;;;9.30;;
70450;SDS011;58869;51.982;4.450;2023-05-21T05:17:40;9.67;;;9.67;;
70450;SDS011;58869;51.982;4.450;2023-05-21T05:20:09;9.83;;;9.83;;
70450;SDS011;58869;51.982;4.450;2023-05-21T05:22:35;9.75;;;9.75;;
70450;SDS011;58869;51.982;4.450;2023-05-21T05:25:00;9.73;;;9.73;;
70450;SDS011;58869;51.982;4.450;2023-05-21T05:27:26;9.35;;;9.35;;
70450;SDS011;58869;51.982;4.450;2023-05-21T05:29:54;9.48;;;9.48;;
70450;SDS011;58869;51.982;4.450;2023-05-21T05:32:19;9.18;;;9.18;;
70450;SDS011;58869;51.982;4.450;2023-05-21T05:34:45;9.64;;;9.64;;
70450;SDS011;58869;51.982;4.450;2023-05-21T05:37:10;9.32;;;9.32;;
70450;SDS011;58869;51.982;4.450;2023-05-21T05:39:36;9.33;;;9.33;;
70450;SDS011;58869;51.982;4.450;2023-05-21T05:42:02;9.69;;;9.69;;
70450;SDS011;58869;51.982;4.450;2023-05-21T05:44:30;9.61;;;9.61;;
70450;SDS011;58869;51.982;4.450;2023-05-21T05:46:56;9.59;;;9.59;;
70450;SDS011;58869;51.982;4.450;2023-05-21T05:49:24;10.08;;;10.08;;
70450;SDS011;58869;51.982;4.450;2023-05-21T05:51:50;10.24;;;10.24;;
70450;SDS011;58869;51.982;4.450;2023-05-21T05:54:15;9.92;;;9.92;;
70450;SDS011;58869;51.982;4.450;2023-05-21T05:56:41;10.00;;;10.00;;
70450;SDS011;58869;51.982;4.450;2023-05-21T05:59:06;10.23;;;10.23;;
70450;SDS011;58869;51.982;4.450;2023-05-21T06:01:31;10.33;;;10.33;;
70450;SDS011;58869;51.982;4.450;2023-05-21T06:03:58;10.28;;;10.28;;
70450;SDS011;58869;51.982;4.450;2023-05-21T06:06:23;10.26;;;10.26;;
70450;SDS011;58869;51.982;4.450;2023-05-21T06:08:49;10.48;;;10.48;;
70450;SDS011;58869;51.982;4.450;2023-05-21T06:11:14;10.68;;;10.68;;
70450;SDS011;58869;51.982;4.450;2023-05-21T06:13:44;10.25;;;10.25;;
70450;SDS011;58869;51.982;4.450;2023-05-21T06:16:09;10.20;;;10.20;;
70450;SDS011;58869;51.982;4.450;2023-05-21T06:18:35;10.55;;;10.55;;
70450;SDS011;58869;51.982;4.450;2023-05-21T06:21:01;10.33;;;10.33;;
70450;SDS011;58869;51.982;4.450;2023-05-21T06:23:27;10.17;;;10.17;;
70450;SDS011;58869;51.982;4.450;2023-05-21T06:25:52;10.48;;;10.48;;
70450;SDS011;58869;51.982;4.450;2023-05-21T06:28:18;10.05;;;10.05;;
70450;SDS011;58869;51.982;4.450;2023-05-21T06:30:43;10.35;;;10.35;;
70450;SDS011;58869;51.982;4.450;2023-05-21T06:33:08;9.83;;;9.83;;
70450;SDS011;58869;51.982;4.450;2023-05-21T06:35:35;10.52;;;10.52;;
70450;SDS011;58869;51.982;4.450;2023-05-21T06:38:01;10.32;;;10.32;;
70450;SDS011;58869;51.982;4.450;2023-05-21T06:40:28;10.63;;;10.63;;
70450;SDS011;58869;51.982;4.450;2023-05-21T06:42:53;10.26;;;10.26;;
70450;SDS011;58869;51.982;4.450;2023-05-21T06:45:20;10.88;;;10.88;;
70450;SDS011;58869;51.982;4.450;2023-05-21T06:47:46;10.55;;;10.55;;
70450;SDS011;58869;51.982;4.450;2023-05-21T06:50:11;10.64;;;10.64;;
70450;SDS011;58869;51.982;4.450;2023-05-21T06:52:36;10.39;;;10.39;;
70450;SDS011;58869;51.982;4.450;2023-05-21T06:55:02;10.27;;;10.27;;
70450;SDS011;58869;51.982;4.450;2023-05-21T06:57:28;10.75;;;10.75;;
70450;SDS011;58869;51.982;4.450;2023-05-21T06:59:53;10.60;;;10.60;;
70450;SDS011;58869;51.982;4.450;2023-05-21T07:02:19;9.90;;;9.90;;
70450;SDS011;58869;51.982;4.450;2023-05-21T07:04:44;10.31;;;10.31;;
70450;SDS011;58869;51.982;4.450;2023-05-21T07:07:09;10.48;;;10.48;;
70450;SDS011;58869;51.982;4.450;2023-05-21T07:09:35;10.55;;;10.55;;
70450;SDS011;58869;51.982;4.450;2023-05-21T07:12:00;10.46;;;10.46;;
70450;SDS011;58869;51.982;4.450;2023-05-21T07:14:26;9.50;;;9.50;;
70450;SDS011;58869;51.982;4.450;2023-05-21T07:16:51;9.93;;;9.93;;
70450;SDS011;58869;51.982;4.450;2023-05-21T07:19:17;9.63;;;9.63;;
70450;SDS011;58869;51.982;4.450;2023-05-21T07:21:44;9.86;;;9.86;;
70450;SDS011;58869;51.982;4.450;2023-05-21T07:24:10;9.74;;;9.74;;
70450;SDS011;58869;51.982;4.450;2023-05-21T07:26:35;9.82;;;9.82;;
70450;SDS011;58869;51.982;4.450;2023-05-21T07:29:01;9.96;;;9.96;;
70450;SDS011;58869;51.982;4.450;2023-05-21T07:31:26;9.93;;;9.93;;
70450;SDS011;58869;51.982;4.450;2023-05-21T07:33:52;9.85;;;9.85;;
70450;SDS011;58869;51.982;4.450;2023-05-21T07:36:17;9.87;;;9.87;;
70450;SDS011;58869;51.982;4.450;2023-05-21T07:38:43;9.94;;;9.94;;
70450;SDS011;58869;51.982;4.450;2023-05-21T07:41:08;9.75;;;9.75;;
70450;SDS011;58869;51.982;4.450;2023-05-21T07:43:34;9.57;;;9.57;;
70450;SDS011;58869;51.982;4.450;2023-05-21T07:46:00;9.68;;;9.68;;
70450;SDS011;58869;51.982;4.450;2023-05-21T07:48:28;9.94;;;9.94;;
70450;SDS011;58869;51.982;4.450;2023-05-21T07:50:53;9.61;;;9.61;;
70450;SDS011;58869;51.982;4.450;2023-05-21T07:53:20;9.56;;;9.56;;
70450;SDS011;58869;51.982;4.450;2023-05-21T07:55:46;9.74;;;9.74;;
70450;SDS011;58869;51.982;4.450;2023-05-21T07:58:13;9.39;;;9.39;;
70450;SDS011;58869;51.982;4.450;2023-05-21T08:00:45;9.06;;;9.06;;
70450;SDS011;58869;51.982;4.450;2023-05-21T08:03:14;9.47;;;9.47;;
70450;SDS011;58869;51.982;4.450;2023-05-21T08:05:44;9.13;;;9.13;;
70450;SDS011;58869;51.982;4.450;2023-05-21T08:08:13;9.57;;;9.57;;
70450;SDS011;58869;51.982;4.450;2023-05-21T08:10:40;9.30;;;9.30;;
70450;SDS011;58869;51.982;4.450;2023-05-21T08:13:07;9.34;;;9.34;;
70450;SDS011;58869;51.982;4.450;2023-05-21T08:15:32;9.50;;;9.50;;
70450;SDS011;58869;51.982;4.450;2023-05-21T08:17:59;9.82;;;9.82;;
70450;SDS011;58869;51.982;4.450;2023-05-21T08:20:24;9.52;;;9.52;;
70450;SDS011;58869;51.982;4.450;2023-05-21T08:22:51;9.54;;;9.54;;
70450;SDS011;58869;51.982;4.450;2023-05-21T08:25:17;9.85;;;9.85;;
70450;SDS011;58869;51.982;4.450;2023-05-21T08:27:43;10.17;;;10.17;;
70450;SDS011;58869;51.982;4.450;2023-05-21T08:30:09;10.14;;;10.14;;
70450;SDS011;58869;51.982;4.450;2023-05-21T08:32:38;10.28;;;10.28;;
70450;SDS011;58869;51.982;4.450;2023-05-21T08:35:03;10.71;;;10.71;;
70450;SDS011;58869;51.982;4.450;2023-05-21T08:37:29;10.38;;;10.38;;
70450;SDS011;58869;51.982;4.450;2023-05-21T08:39:54;10.00;;;10.00;;
70450;SDS011;58869;51.982;4.450;2023-05-21T08:42:28;10.85;;;10.85;;
70450;SDS011;58869;51.982;4.450;2023-05-21T08:45:00;9.75;;;9.75;;
70450;SDS011;58869;51.982;4.450;2023-05-21T08:47:31;10.31;;;10.31;;
70450;SDS011;58869;51.982;4.450;2023-05-21T08:50:00;9.90;;;9.90;;
70450;SDS011;58869;51.982;4.450;2023-05-21T08:52:30;9.97;;;9.97;;
70450;SDS011;58869;51.982;4.450;2023-05-21T08:54:56;10.30;;;10.30;;
70450;SDS011;58869;51.982;4.450;2023-05-21T08:57:22;10.00;;;10.00;;
70450;SDS011;58869;51.982;4.450;2023-05-21T08:59:50;10.17;;;10.17;;
70450;SDS011;58869;51.982;4.450;2023-05-21T09:02:15;10.03;;;10.03;;
70450;SDS011;58869;51.982;4.450;2023-05-21T09:04:43;9.51;;;9.51;;
70450;SDS011;58869;51.982;4.450;2023-05-21T09:07:13;9.67;;;9.67;;
70450;SDS011;58869;51.982;4.450;2023-05-21T09:12:37;9.50;;;9.50;;
70450;SDS011;58869;51.982;4.450;2023-05-21T09:15:04;9.50;;;9.50;;
70450;SDS011;58869;51.982;4.450;2023-05-21T09:17:30;9.16;;;9.16;;
70450;SDS011;58869;51.982;4.450;2023-05-21T09:20:05;9.20;;;9.20;;
70450;SDS011;58869;51.982;4.450;2023-05-21T09:22:49;9.20;;;9.20;;
70450;SDS011;58869;51.982;4.450;2023-05-21T09:25:18;8.84;;;8.84;;
70450;SDS011;58869;51.982;4.450;2023-05-21T09:27:48;9.37;;;9.37;;
70450;SDS011;58869;51.982;4.450;2023-05-21T09:30:15;9.32;;;9.32;;
70450;SDS011;58869;51.982;4.450;2023-05-21T09:32:43;9.30;;;9.30;;
70450;SDS011;58869;51.982;4.450;2023-05-21T09:35:11;8.87;;;8.87;;
70450;SDS011;58869;51.982;4.450;2023-05-21T09:37:42;9.26;;;9.26;;
70450;SDS011;58869;51.982;4.450;2023-05-21T09:40:24;9.59;;;9.59;;
70450;SDS011;58869;51.982;4.450;2023-05-21T09:42:51;9.05;;;9.05;;
70450;SDS011;58869;51.982;4.450;2023-05-21T09:45:18;8.78;;;8.78;;
70450;SDS011;58869;51.982;4.450;2023-05-21T09:47:48;8.60;;;8.60;;
70450;SDS011;58869;51.982;4.450;2023-05-21T09:50:19;8.70;;;8.70;;
70450;SDS011;58869;51.982;4.450;2023-05-21T09:52:46;8.95;;;8.95;;
70450;SDS011;58869;51.982;4.450;2023-05-21T09:55:14;9.05;;;9.05;;
70450;SDS011;58869;51.982;4.450;2023-05-21T09:57:45;8.43;;;8.43;;
70450;SDS011;58869;51.982;4.450;2023-05-21T10:00:18;8.62;;;8.62;;
70450;SDS011;58869;51.982;4.450;2023-05-21T10:02:48;8.67;;;8.67;;
70450;SDS011;58869;51.982;4.450;2023-05-21T10:05:24;8.60;;;8.60;;
70450;SDS011;58869;51.982;4.450;2023-05-21T10:07:53;8.36;;;8.36;;
70450;SDS011;58869;51.982;4.450;2023-05-21T10:10:23;8.28;;;8.28;;
70450;SDS011;58869;51.982;4.450;2023-05-21T10:13:13;8.54;;;8.54;;
70450;SDS011;58869;51.982;4.450;2023-05-21T10:15:41;8.13;;;8.13;;
70450;SDS011;58869;51.982;4.450;2023-05-21T10:18:09;8.02;;;8.02;;
70450;SDS011;58869;51.982;4.450;2023-05-21T10:20:36;8.69;;;8.69;;
70450;SDS011;58869;51.982;4.450;2023-05-21T10:23:02;8.75;;;8.75;;
70450;SDS011;58869;51.982;4.450;2023-05-21T10:25:29;8.78;;;8.78;;
70450;SDS011;58869;51.982;4.450;2023-05-21T10:27:57;8.63;;;8.63;;
70450;SDS011;58869;51.982;4.450;2023-05-21T10:30:23;9.07;;;9.07;;
70450;SDS011;58869;51.982;4.450;2023-05-21T10:32:49;8.72;;;8.72;;
70450;SDS011;58869;51.982;4.450;2023-05-21T10:35:15;8.37;;;8.37;;
70450;SDS011;58869;51.982;4.450;2023-05-21T10:37:45;8.27;;;8.27;;
70450;SDS011;58869;51.982;4.450;2023-05-21T10:40:11;8.72;;;8.72;;
70450;SDS011;58869;51.982;4.450;2023-05-21T10:42:47;8.66;;;8.66;;
70450;SDS011;58869;51.982;4.450;2023-05-21T10:45:25;8.79;;;8.79;;
70450;SDS011;58869;51.982;4.450;2023-05-21T10:51:17;8.65;;;8.65;;
70450;SDS011;58869;51.982;4.450;2023-05-21T10:59:42;8.38;;;8.38;;
70450;SDS011;58869;51.982;4.450;2023-05-21T11:02:10;8.48;;;8.47;;
70450;SDS011;58869;51.982;4.450;2023-05-21T11:04:38;8.89;;;8.89;;
70450;SDS011;58869;51.982;4.450;2023-05-21T11:07:07;8.97;;;8.97;;
70450;SDS011;58869;51.982;4.450;2023-05-21T11:09:33;9.37;;;9.37;;
70450;SDS011;58869;51.982;4.450;2023-05-21T11:11:59;9.31;;;9.31;;
70450;SDS011;58869;51.982;4.450;2023-05-21T11:17:00;9.56;;;9.56;;
70450;SDS011;58869;51.982;4.450;2023-05-21T11:19:42;9.76;;;9.76;;
70450;SDS011;58869;51.982;4.450;2023-05-21T11:22:21;10.19;;;10.19;;
70450;SDS011;58869;51.982;4.450;2023-05-21T11:24:51;10.34;;;10.34;;
70450;SDS011;58869;51.982;4.450;2023-05-21T11:27:37;10.34;;;10.34;;
70450;SDS011;58869;51.982;4.450;2023-05-21T11:30:08;9.85;;;9.85;;
70450;SDS011;58869;51.982;4.450;2023-05-21T11:32:39;9.88;;;9.88;;
70450;SDS011;58869;51.982;4.450;2023-05-21T11:35:56;10.14;;;10.14;;
70450;SDS011;58869;51.982;4.450;2023-05-21T11:38:24;10.42;;;10.42;;
70450;SDS011;58869;51.982;4.450;2023-05-21T11:40:59;10.24;;;10.24;;
70450;SDS011;58869;51.982;4.450;2023-05-21T11:43:27;9.75;;;9.75;;
70450;SDS011;58869;51.982;4.450;2023-05-21T11:45:52;10.30;;;10.30;;
70450;SDS011;58869;51.982;4.450;2023-05-21T11:48:20;10.22;;;10.22;;
70450;SDS011;58869;51.982;4.450;2023-05-21T11:50:48;10.94;;;10.94;;
70450;SDS011;58869;51.982;4.450;2023-05-21T11:53:14;10.72;;;10.72;;
70450;SDS011;58869;51.982;4.450;2023-05-21T11:55:41;10.77;;;10.77;;
70450;SDS011;58869;51.982;4.450;2023-05-21T11:58:08;11.02;;;11.02;;
70450;SDS011;58869;51.982;4.450;2023-05-21T12:00:39;11.98;;;11.98;;
70450;SDS011;58869;51.982;4.450;2023-05-21T12:03:04;11.30;;;11.30;;
70450;SDS011;58869;51.982;4.450;2023-05-21T12:05:42;11.20;;;11.20;;
70450;SDS011;58869;51.982;4.450;2023-05-21T12:08:21;10.75;;;10.75;;
70450;SDS011;58869;51.982;4.450;2023-05-21T12:10:53;10.95;;;10.95;;
70450;SDS011;58869;51.982;4.450;2023-05-21T12:13:22;10.27;;;10.27;;
70450;SDS011;58869;51.982;4.450;2023-05-21T12:15:51;11.27;;;11.27;;
70450;SDS011;58869;51.982;4.450;2023-05-21T12:18:17;10.84;;;10.84;;
70450;SDS011;58869;51.982;4.450;2023-05-21T12:20:43;10.82;;;10.82;;
70450;SDS011;58869;51.982;4.450;2023-05-21T12:23:17;10.61;;;10.61;;
70450;SDS011;58869;51.982;4.450;2023-05-21T12:25:48;10.92;;;10.92;;
70450;SDS011;58869;51.982;4.450;2023-05-21T12:28:15;11.20;;;11.20;;
70450;SDS011;58869;51.982;4.450;2023-05-21T12:30:40;11.09;;;11.09;;
70450;SDS011;58869;51.982;4.450;2023-05-21T12:33:06;11.32;;;11.32;;
70450;SDS011;58869;51.982;4.450;2023-05-21T12:35:31;10.77;;;10.77;;
70450;SDS011;58869;51.982;4.450;2023-05-21T12:37:59;11.16;;;11.16;;
70450;SDS011;58869;51.982;4.450;2023-05-21T12:40:35;12.03;;;12.03;;
70450;SDS011;58869;51.982;4.450;2023-05-21T12:43:02;12.24;;;12.24;;
70450;SDS011;58869;51.982;4.450;2023-05-21T12:45:28;11.54;;;11.54;;
70450;SDS011;58869;51.982;4.450;2023-05-21T12:47:54;11.22;;;11.22;;
70450;SDS011;58869;51.982;4.450;2023-05-21T12:50:20;11.91;;;11.91;;
70450;SDS011;58869;51.982;4.450;2023-05-21T12:52:46;11.26;;;11.26;;
70450;SDS011;58869;51.982;4.450;2023-05-21T12:55:12;11.86;;;11.86;;
70450;SDS011;58869;51.982;4.450;2023-05-21T12:57:38;11.87;;;11.87;;
70450;SDS011;58869;51.982;4.450;2023-05-21T13:00:04;11.83;;;11.83;;
70450;SDS011;58869;51.982;4.450;2023-05-21T13:02:31;10.91;;;10.91;;
70450;SDS011;58869;51.982;4.450;2023-05-21T13:05:05;11.29;;;11.29;;
70450;SDS011;58869;51.982;4.450;2023-05-21T13:07:33;11.97;;;11.97;;
70450;SDS011;58869;51.982;4.450;2023-05-21T13:10:00;12.05;;;12.05;;
70450;SDS011;58869;51.982;4.450;2023-05-21T13:12:27;12.13;;;12.13;;
70450;SDS011;58869;51.982;4.450;2023-05-21T13:14:55;11.30;;;11.30;;
70450;SDS011;58869;51.982;4.450;2023-05-21T13:17:22;12.03;;;12.03;;
70450;SDS011;58869;51.982;4.450;2023-05-21T13:20:08;11.93;;;11.93;;
70450;SDS011;58869;51.982;4.450;2023-05-21T13:22:41;12.76;;;12.76;;
70450;SDS011;58869;51.982;4.450;2023-05-21T13:25:16;12.42;;;12.42;;
70450;SDS011;58869;51.982;4.450;2023-05-21T13:27:44;11.88;;;11.88;;
70450;SDS011;58869;51.982;4.450;2023-05-21T13:30:10;12.45;;;12.45;;
70450;SDS011;58869;51.982;4.450;2023-05-21T13:32:36;12.22;;;12.22;;
70450;SDS011;58869;51.982;4.450;2023-05-21T13:35:02;12.37;;;12.37;;
70450;SDS011;58869;51.982;4.450;2023-05-21T13:37:28;11.37;;;11.37;;
70450;SDS011;58869;51.982;4.450;2023-05-21T13:39:54;11.76;;;11.76;;
70450;SDS011;58869;51.982;4.450;2023-05-21T13:42:20;12.24;;;12.24;;
70450;SDS011;58869;51.982;4.450;2023-05-21T13:44:46;11.85;;;11.85;;
70450;SDS011;58869;51.982;4.450;2023-05-21T13:47:12;11.86;;;11.86;;
70450;SDS011;58869;51.982;4.450;2023-05-21T13:49:37;11.70;;;11.70;;
70450;SDS011;58869;51.982;4.450;2023-05-21T13:52:03;12.28;;;12.28;;
70450;SDS011;58869;51.982;4.450;2023-05-21T13:54:29;12.23;;;12.23;;
70450;SDS011;58869;51.982;4.450;2023-05-21T13:56:55;11.25;;;11.25;;
70450;SDS011;58869;51.982;4.450;2023-05-21T13:59:22;12.19;;;12.19;;
70450;SDS011;58869;51.982;4.450;2023-05-21T14:01:48;10.72;;;10.72;;
70450;SDS011;58869;51.982;4.450;2023-05-21T14:04:16;9.58;;;9.58;;
70450;SDS011;58869;51.982;4.450;2023-05-21T14:06:43;6.82;;;6.82;;
70450;SDS011;58869;51.982;4.450;2023-05-21T14:09:10;6.21;;;6.21;;
70450;SDS011;58869;51.982;4.450;2023-05-21T14:11:35;6.75;;;6.75;;
70450;SDS011;58869;51.982;4.450;2023-05-21T14:14:01;6.44;;;6.44;;
70450;SDS011;58869;51.982;4.450;2023-05-21T14:16:27;6.73;;;6.73;;
70450;SDS011;58869;51.982;4.450;2023-05-21T14:18:53;6.28;;;6.28;;
70450;SDS011;58869;51.982;4.450;2023-05-21T14:21:19;6.81;;;6.81;;
70450;SDS011;58869;51.982;4.450;2023-05-21T14:23:45;6.59;;;6.59;;
70450;SDS011;58869;51.982;4.450;2023-05-21T14:26:11;6.47;;;6.47;;
70450;SDS011;58869;51.982;4.450;2023-05-21T14:28:36;6.45;;;6.45;;
70450;SDS011;58869;51.982;4.450;2023-05-21T14:31:02;6.80;;;6.79;;
70450;SDS011;58869;51.982;4.450;2023-05-21T14:33:29;7.00;;;7.00;;
70450;SDS011;58869;51.982;4.450;2023-05-21T14:35:55;7.17;;;7.17;;
70450;SDS011;58869;51.982;4.450;2023-05-21T14:38:20;7.01;;;7.01;;
70450;SDS011;58869;51.982;4.450;2023-05-21T14:40:46;6.72;;;6.72;;
70450;SDS011;58869;51.982;4.450;2023-05-21T14:43:11;7.04;;;7.04;;
70450;SDS011;58869;51.982;4.450;2023-05-21T14:45:37;6.65;;;6.65;;
70450;SDS011;58869;51.982;4.450;2023-05-21T14:48:03;6.84;;;6.84;;
70450;SDS011;58869;51.982;4.450;2023-05-21T14:50:39;6.38;;;6.38;;
70450;SDS011;58869;51.982;4.450;2023-05-21T14:55:34;7.01;;;7.01;;
70450;SDS011;58869;51.982;4.450;2023-05-21T14:58:01;6.81;;;6.81;;
70450;SDS011;58869;51.982;4.450;2023-05-21T15:00:28;6.53;;;6.53;;
70450;SDS011;58869;51.982;4.450;2023-05-21T15:02:54;7.22;;;7.18;;